sensor_id;sensor_type;location;lat;lon;timestamp;P1;durP1;ratioP1;P2;durP2;ratioP2
3643;SDS011;1838;50.742;7.158;2023-12-20T00:01:21;3.10;;;2.80;;
3643;SDS011;1838;50.742;7.158;2023-12-20T00:03:47;2.70;;;2.27;;
3643;SDS011;1838;50.742;7.158;2023-12-20T00:06:12;4.30;;;2.50;;
3643;SDS011;1838;50.742;7.158;2023-12-20T00:08:38;2.90;;;2.40;;
3643;SDS011;1838;50.742;7.158;2023-12-20T00:11:03;2.83;;;2.20;;
3643;SDS011;1838;50.742;7.158;2023-12-20T00:13:29;2.70;;;2.13;;
3643;SDS011;1838;50.742;7.158;2023-12-20T00:15:54;4.27;;;2.33;;
3643;SDS011;1838;50.742;7.158;2023-12-20T00:18:20;3.20;;;2.40;;
3643;SDS011;1838;50.742;7.158;2023-12-20T00:20:45;3.70;;;2.47;;
3643;SDS011;1838;50.742;7.158;2023-12-20T00:23:11;6.80;;;2.27;;
3643;SDS011;1838;50.742;7.158;2023-12-20T00:25:36;3.43;;;2.43;;
3643;SDS011;1838;50.742;7.158;2023-12-20T00:28:02;3.53;;;2.00;;
3643;SDS011;1838;50.742;7.158;2023-12-20T00:30:28;5.47;;;2.40;;
3643;SDS011;1838;50.742;7.158;2023-12-20T00:32:53;2.90;;;2.50;;
3643;SDS011;1838;50.742;7.158;2023-12-20T00:35:20;3.27;;;2.40;;
3643;SDS011;1838;50.742;7.158;2023-12-20T00:37:46;4.07;;;2.27;;
3643;SDS011;1838;50.742;7.158;2023-12-20T00:40:11;3.00;;;2.00;;
3643;SDS011;1838;50.742;7.158;2023-12-20T00:42:37;3.43;;;2.20;;
3643;SDS011;1838;50.742;7.158;2023-12-20T00:45:02;5.07;;;2.00;;
3643;SDS011;1838;50.742;7.158;2023-12-20T00:47:29;2.60;;;2.00;;
3643;SDS011;1838;50.742;7.158;2023-12-20T00:49:55;2.40;;;2.00;;
3643;SDS011;1838;50.742;7.158;2023-12-20T00:52:21;2.77;;;2.20;;
3643;SDS011;1838;50.742;7.158;2023-12-20T00:54:47;2.20;;;1.83;;
3643;SDS011;1838;50.742;7.158;2023-12-20T00:57:13;2.90;;;2.00;;
3643;SDS011;1838;50.742;7.158;2023-12-20T00:59:39;2.93;;;2.10;;
3643;SDS011;1838;50.742;7.158;2023-12-20T01:02:04;4.70;;;2.27;;
3643;SDS011;1838;50.742;7.158;2023-12-20T01:04:30;3.10;;;2.67;;
3643;SDS011;1838;50.742;7.158;2023-12-20T01:06:55;4.63;;;2.47;;
3643;SDS011;1838;50.742;7.158;2023-12-20T01:09:21;4.50;;;2.10;;
3643;SDS011;1838;50.742;7.158;2023-12-20T01:11:51;3.43;;;2.07;;
3643;SDS011;1838;50.742;7.158;2023-12-20T01:14:17;2.80;;;2.17;;
3643;SDS011;1838;50.742;7.158;2023-12-20T01:16:42;2.40;;;2.20;;
3643;SDS011;1838;50.742;7.158;2023-12-20T01:19:08;2.43;;;1.80;;
3643;SDS011;1838;50.742;7.158;2023-12-20T01:21:33;2.97;;;2.13;;
3643;SDS011;1838;50.742;7.158;2023-12-20T01:23:59;3.03;;;2.30;;
3643;SDS011;1838;50.742;7.158;2023-12-20T01:26:24;2.83;;;2.53;;
3643;SDS011;1838;50.742;7.158;2023-12-20T01:28:50;3.83;;;2.87;;
3643;SDS011;1838;50.742;7.158;2023-12-20T01:31:15;3.70;;;2.80;;
3643;SDS011;1838;50.742;7.158;2023-12-20T01:33:41;7.07;;;4.47;;
3643;SDS011;1838;50.742;7.158;2023-12-20T01:36:06;7.20;;;4.60;;
3643;SDS011;1838;50.742;7.158;2023-12-20T01:38:32;7.83;;;4.73;;
3643;SDS011;1838;50.742;7.158;2023-12-20T01:40:58;11.77;;;5.67;;
3643;SDS011;1838;50.742;7.158;2023-12-20T01:43:24;10.73;;;6.50;;
3643;SDS011;1838;50.742;7.158;2023-12-20T01:45:50;10.57;;;6.83;;
3643;SDS011;1838;50.742;7.158;2023-12-20T01:48:16;10.57;;;6.70;;
3643;SDS011;1838;50.742;7.158;2023-12-20T01:50:42;13.67;;;7.23;;
3643;SDS011;1838;50.742;7.158;2023-12-20T01:53:10;13.33;;;7.20;;
3643;SDS011;1838;50.742;7.158;2023-12-20T01:55:38;11.03;;;7.33;;
3643;SDS011;1838;50.742;7.158;2023-12-20T01:58:05;15.00;;;8.20;;
3643;SDS011;1838;50.742;7.158;2023-12-20T02:00:32;11.50;;;7.70;;
3643;SDS011;1838;50.742;7.158;2023-12-20T02:03:00;16.03;;;7.97;;
3643;SDS011;1838;50.742;7.158;2023-12-20T02:05:26;19.07;;;9.67;;
3643;SDS011;1838;50.742;7.158;2023-12-20T02:07:53;19.50;;;8.50;;
3643;SDS011;1838;50.742;7.158;2023-12-20T02:10:18;16.00;;;9.73;;
3643;SDS011;1838;50.742;7.158;2023-12-20T02:12:44;19.80;;;10.60;;
3643;SDS011;1838;50.742;7.158;2023-12-20T02:15:10;21.80;;;11.93;;
3643;SDS011;1838;50.742;7.158;2023-12-20T02:17:36;25.80;;;12.10;;
3643;SDS011;1838;50.742;7.158;2023-12-20T02:20:03;21.10;;;11.00;;
3643;SDS011;1838;50.742;7.158;2023-12-20T02:22:30;28.37;;;12.50;;
3643;SDS011;1838;50.742;7.158;2023-12-20T02:24:56;25.07;;;11.40;;
3643;SDS011;1838;50.742;7.158;2023-12-20T02:27:21;21.57;;;9.90;;
3643;SDS011;1838;50.742;7.158;2023-12-20T02:29:48;18.23;;;10.10;;
3643;SDS011;1838;50.742;7.158;2023-12-20T02:32:15;16.93;;;8.20;;
3643;SDS011;1838;50.742;7.158;2023-12-20T02:34:42;14.87;;;6.47;;
3643;SDS011;1838;50.742;7.158;2023-12-20T02:37:07;24.80;;;6.80;;
3643;SDS011;1838;50.742;7.158;2023-12-20T02:39:33;13.63;;;6.70;;
3643;SDS011;1838;50.742;7.158;2023-12-20T02:41:58;22.77;;;5.33;;
3643;SDS011;1838;50.742;7.158;2023-12-20T02:44:24;25.50;;;6.00;;
3643;SDS011;1838;50.742;7.158;2023-12-20T02:46:50;15.63;;;5.20;;
3643;SDS011;1838;50.742;7.158;2023-12-20T02:49:15;11.20;;;4.70;;
3643;SDS011;1838;50.742;7.158;2023-12-20T02:51:41;19.67;;;4.47;;
3643;SDS011;1838;50.742;7.158;2023-12-20T02:54:06;12.57;;;4.40;;
3643;SDS011;1838;50.742;7.158;2023-12-20T02:56:32;15.03;;;3.80;;
3643;SDS011;1838;50.742;7.158;2023-12-20T02:58:58;13.03;;;4.30;;
3643;SDS011;1838;50.742;7.158;2023-12-20T03:01:23;14.97;;;4.90;;
3643;SDS011;1838;50.742;7.158;2023-12-20T03:03:49;11.17;;;3.70;;
3643;SDS011;1838;50.742;7.158;2023-12-20T03:06:18;14.90;;;3.77;;
3643;SDS011;1838;50.742;7.158;2023-12-20T03:08:44;20.43;;;4.60;;
3643;SDS011;1838;50.742;7.158;2023-12-20T03:11:10;12.03;;;4.20;;
3643;SDS011;1838;50.742;7.158;2023-12-20T03:13:35;16.57;;;3.90;;
3643;SDS011;1838;50.742;7.158;2023-12-20T03:16:01;9.20;;;3.70;;
3643;SDS011;1838;50.742;7.158;2023-12-20T03:18:32;15.03;;;3.63;;
3643;SDS011;1838;50.742;7.158;2023-12-20T03:20:58;9.93;;;3.63;;
3643;SDS011;1838;50.742;7.158;2023-12-20T03:23:23;10.63;;;3.83;;
3643;SDS011;1838;50.742;7.158;2023-12-20T03:25:49;11.30;;;3.10;;
3643;SDS011;1838;50.742;7.158;2023-12-20T03:28:15;12.67;;;3.10;;
3643;SDS011;1838;50.742;7.158;2023-12-20T03:30:41;13.50;;;4.30;;
3643;SDS011;1838;50.742;7.158;2023-12-20T03:33:06;19.00;;;3.10;;
3643;SDS011;1838;50.742;7.158;2023-12-20T03:35:32;16.73;;;3.60;;
3643;SDS011;1838;50.742;7.158;2023-12-20T03:37:58;8.53;;;3.13;;
3643;SDS011;1838;50.742;7.158;2023-12-20T03:40:25;14.63;;;4.60;;
3643;SDS011;1838;50.742;7.158;2023-12-20T03:42:50;7.37;;;3.50;;
3643;SDS011;1838;50.742;7.158;2023-12-20T03:45:16;5.27;;;2.83;;
3643;SDS011;1838;50.742;7.158;2023-12-20T03:47:42;16.43;;;3.53;;
3643;SDS011;1838;50.742;7.158;2023-12-20T03:50:07;19.97;;;2.97;;
3643;SDS011;1838;50.742;7.158;2023-12-20T03:52:33;9.40;;;3.53;;
3643;SDS011;1838;50.742;7.158;2023-12-20T03:54:58;9.10;;;3.20;;
3643;SDS011;1838;50.742;7.158;2023-12-20T03:57:24;14.27;;;3.80;;
3643;SDS011;1838;50.742;7.158;2023-12-20T03:59:49;18.90;;;3.63;;
3643;SDS011;1838;50.742;7.158;2023-12-20T04:02:15;13.17;;;4.30;;
3643;SDS011;1838;50.742;7.158;2023-12-20T04:04:42;12.70;;;4.20;;
3643;SDS011;1838;50.742;7.158;2023-12-20T04:07:08;12.63;;;3.93;;
3643;SDS011;1838;50.742;7.158;2023-12-20T04:09:34;13.10;;;2.90;;
3643;SDS011;1838;50.742;7.158;2023-12-20T04:11:59;12.47;;;3.67;;
3643;SDS011;1838;50.742;7.158;2023-12-20T04:14:25;16.73;;;3.30;;
3643;SDS011;1838;50.742;7.158;2023-12-20T04:16:50;16.00;;;4.00;;
3643;SDS011;1838;50.742;7.158;2023-12-20T04:19:16;13.73;;;3.57;;
3643;SDS011;1838;50.742;7.158;2023-12-20T04:21:41;13.73;;;3.57;;
3643;SDS011;1838;50.742;7.158;2023-12-20T04:24:07;17.07;;;3.97;;
3643;SDS011;1838;50.742;7.158;2023-12-20T04:26:33;16.70;;;3.90;;
3643;SDS011;1838;50.742;7.158;2023-12-20T04:28:58;16.03;;;4.07;;
3643;SDS011;1838;50.742;7.158;2023-12-20T04:31:24;7.73;;;4.00;;
3643;SDS011;1838;50.742;7.158;2023-12-20T04:33:49;12.80;;;4.47;;
3643;SDS011;1838;50.742;7.158;2023-12-20T04:36:15;14.80;;;3.70;;
3643;SDS011;1838;50.742;7.158;2023-12-20T04:38:41;11.33;;;3.87;;
3643;SDS011;1838;50.742;7.158;2023-12-20T04:41:06;13.50;;;4.40;;
3643;SDS011;1838;50.742;7.158;2023-12-20T04:43:32;21.47;;;4.13;;
3643;SDS011;1838;50.742;7.158;2023-12-20T04:45:57;19.40;;;4.87;;
3643;SDS011;1838;50.742;7.158;2023-12-20T04:48:23;12.03;;;4.20;;
3643;SDS011;1838;50.742;7.158;2023-12-20T04:50:48;13.30;;;4.70;;
3643;SDS011;1838;50.742;7.158;2023-12-20T04:53:14;22.67;;;4.83;;
3643;SDS011;1838;50.742;7.158;2023-12-20T04:55:39;13.67;;;4.57;;
3643;SDS011;1838;50.742;7.158;2023-12-20T04:58:05;15.13;;;4.43;;
3643;SDS011;1838;50.742;7.158;2023-12-20T05:00:30;18.07;;;4.87;;
3643;SDS011;1838;50.742;7.158;2023-12-20T05:02:56;15.97;;;5.03;;
3643;SDS011;1838;50.742;7.158;2023-12-20T05:05:21;14.83;;;4.80;;
3643;SDS011;1838;50.742;7.158;2023-12-20T05:07:47;19.93;;;4.73;;
3643;SDS011;1838;50.742;7.158;2023-12-20T05:10:13;12.07;;;5.10;;
3643;SDS011;1838;50.742;7.158;2023-12-20T05:12:38;19.53;;;5.30;;
3643;SDS011;1838;50.742;7.158;2023-12-20T05:15:05;22.27;;;5.53;;
3643;SDS011;1838;50.742;7.158;2023-12-20T05:17:31;12.57;;;4.13;;
3643;SDS011;1838;50.742;7.158;2023-12-20T05:19:57;13.40;;;5.13;;
3643;SDS011;1838;50.742;7.158;2023-12-20T05:22:22;9.80;;;4.60;;
3643;SDS011;1838;50.742;7.158;2023-12-20T05:24:48;12.23;;;4.43;;
3643;SDS011;1838;50.742;7.158;2023-12-20T05:27:14;22.37;;;5.00;;
3643;SDS011;1838;50.742;7.158;2023-12-20T05:29:39;6.70;;;4.50;;
3643;SDS011;1838;50.742;7.158;2023-12-20T05:32:05;14.33;;;5.73;;
3643;SDS011;1838;50.742;7.158;2023-12-20T05:34:31;13.23;;;4.70;;
3643;SDS011;1838;50.742;7.158;2023-12-20T05:36:57;19.33;;;4.30;;
3643;SDS011;1838;50.742;7.158;2023-12-20T05:39:23;21.03;;;5.60;;
3643;SDS011;1838;50.742;7.158;2023-12-20T05:41:48;16.70;;;5.43;;
3643;SDS011;1838;50.742;7.158;2023-12-20T05:44:14;12.67;;;4.83;;
3643;SDS011;1838;50.742;7.158;2023-12-20T05:46:39;16.10;;;5.70;;
3643;SDS011;1838;50.742;7.158;2023-12-20T05:49:05;16.53;;;5.50;;
3643;SDS011;1838;50.742;7.158;2023-12-20T05:51:31;27.33;;;5.10;;
3643;SDS011;1838;50.742;7.158;2023-12-20T05:53:57;15.30;;;5.37;;
3643;SDS011;1838;50.742;7.158;2023-12-20T05:56:23;19.63;;;5.93;;
3643;SDS011;1838;50.742;7.158;2023-12-20T05:58:49;18.33;;;6.07;;
3643;SDS011;1838;50.742;7.158;2023-12-20T06:01:17;15.40;;;6.07;;
3643;SDS011;1838;50.742;7.158;2023-12-20T06:03:42;23.10;;;5.37;;
3643;SDS011;1838;50.742;7.158;2023-12-20T06:06:08;16.97;;;5.77;;
3643;SDS011;1838;50.742;7.158;2023-12-20T06:08:34;11.63;;;5.40;;
3643;SDS011;1838;50.742;7.158;2023-12-20T06:11:00;18.03;;;4.87;;
3643;SDS011;1838;50.742;7.158;2023-12-20T06:13:26;14.73;;;4.57;;
3643;SDS011;1838;50.742;7.158;2023-12-20T06:15:52;28.30;;;5.90;;
3643;SDS011;1838;50.742;7.158;2023-12-20T06:18:19;12.83;;;5.87;;
3643;SDS011;1838;50.742;7.158;2023-12-20T06:20:45;15.53;;;5.73;;
3643;SDS011;1838;50.742;7.158;2023-12-20T06:23:10;12.90;;;5.10;;
3643;SDS011;1838;50.742;7.158;2023-12-20T06:25:36;14.53;;;5.57;;
3643;SDS011;1838;50.742;7.158;2023-12-20T06:28:01;17.70;;;5.70;;
3643;SDS011;1838;50.742;7.158;2023-12-20T06:30:27;10.80;;;5.17;;
3643;SDS011;1838;50.742;7.158;2023-12-20T06:32:53;11.83;;;5.07;;
3643;SDS011;1838;50.742;7.158;2023-12-20T06:35:19;17.17;;;5.17;;
3643;SDS011;1838;50.742;7.158;2023-12-20T06:37:45;16.00;;;4.63;;
3643;SDS011;1838;50.742;7.158;2023-12-20T06:40:11;10.40;;;5.30;;
3643;SDS011;1838;50.742;7.158;2023-12-20T06:42:37;17.83;;;4.90;;
3643;SDS011;1838;50.742;7.158;2023-12-20T06:45:03;21.93;;;5.87;;
3643;SDS011;1838;50.742;7.158;2023-12-20T06:47:29;23.90;;;6.13;;
3643;SDS011;1838;50.742;7.158;2023-12-20T06:49:54;25.13;;;5.80;;
3643;SDS011;1838;50.742;7.158;2023-12-20T06:52:20;20.40;;;5.10;;
3643;SDS011;1838;50.742;7.158;2023-12-20T06:54:45;25.10;;;5.63;;
3643;SDS011;1838;50.742;7.158;2023-12-20T06:57:11;19.87;;;5.60;;
3643;SDS011;1838;50.742;7.158;2023-12-20T06:59:43;9.80;;;5.50;;
3643;SDS011;1838;50.742;7.158;2023-12-20T07:02:09;17.90;;;5.30;;
3643;SDS011;1838;50.742;7.158;2023-12-20T07:04:38;23.03;;;6.27;;
3643;SDS011;1838;50.742;7.158;2023-12-20T07:07:05;19.30;;;5.67;;
3643;SDS011;1838;50.742;7.158;2023-12-20T07:09:30;10.60;;;5.43;;
3643;SDS011;1838;50.742;7.158;2023-12-20T07:11:55;26.63;;;6.03;;
3643;SDS011;1838;50.742;7.158;2023-12-20T07:14:21;22.33;;;6.80;;
3643;SDS011;1838;50.742;7.158;2023-12-20T07:16:46;33.27;;;6.63;;
3643;SDS011;1838;50.742;7.158;2023-12-20T07:19:12;21.83;;;6.53;;
3643;SDS011;1838;50.742;7.158;2023-12-20T07:21:38;11.47;;;4.50;;
3643;SDS011;1838;50.742;7.158;2023-12-20T07:24:03;28.03;;;6.30;;
3643;SDS011;1838;50.742;7.158;2023-12-20T07:26:29;15.13;;;6.23;;
3643;SDS011;1838;50.742;7.158;2023-12-20T07:28:54;20.23;;;4.90;;
3643;SDS011;1838;50.742;7.158;2023-12-20T07:31:20;11.53;;;6.40;;
3643;SDS011;1838;50.742;7.158;2023-12-20T07:33:45;17.03;;;5.57;;
3643;SDS011;1838;50.742;7.158;2023-12-20T07:36:11;26.70;;;6.10;;
3643;SDS011;1838;50.742;7.158;2023-12-20T07:38:37;24.90;;;6.00;;
3643;SDS011;1838;50.742;7.158;2023-12-20T07:41:02;28.70;;;6.03;;
3643;SDS011;1838;50.742;7.158;2023-12-20T07:43:28;19.83;;;4.47;;
3643;SDS011;1838;50.742;7.158;2023-12-20T07:45:53;12.10;;;5.17;;
3643;SDS011;1838;50.742;7.158;2023-12-20T07:48:19;15.83;;;5.47;;
3643;SDS011;1838;50.742;7.158;2023-12-20T07:50:44;27.30;;;6.10;;
3643;SDS011;1838;50.742;7.158;2023-12-20T07:53:10;15.93;;;5.37;;
3643;SDS011;1838;50.742;7.158;2023-12-20T07:55:35;23.37;;;5.47;;
3643;SDS011;1838;50.742;7.158;2023-12-20T07:58:01;15.53;;;5.10;;
3643;SDS011;1838;50.742;7.158;2023-12-20T08:00:27;22.23;;;5.28;;
3643;SDS011;1838;50.742;7.158;2023-12-20T08:02:52;24.10;;;5.70;;
3643;SDS011;1838;50.742;7.158;2023-12-20T08:05:18;13.57;;;4.23;;
3643;SDS011;1838;50.742;7.158;2023-12-20T08:07:44;14.60;;;4.50;;
3643;SDS011;1838;50.742;7.158;2023-12-20T08:10:09;17.93;;;6.30;;
3643;SDS011;1838;50.742;7.158;2023-12-20T08:12:35;14.20;;;5.17;;
3643;SDS011;1838;50.742;7.158;2023-12-20T08:15:01;12.37;;;4.63;;
3643;SDS011;1838;50.742;7.158;2023-12-20T08:17:27;15.70;;;5.00;;
3643;SDS011;1838;50.742;7.158;2023-12-20T08:19:52;19.80;;;6.30;;
3643;SDS011;1838;50.742;7.158;2023-12-20T08:22:18;24.77;;;6.20;;
3643;SDS011;1838;50.742;7.158;2023-12-20T08:24:43;17.73;;;5.30;;
3643;SDS011;1838;50.742;7.158;2023-12-20T08:27:09;24.33;;;5.50;;
3643;SDS011;1838;50.742;7.158;2023-12-20T08:29:34;11.57;;;5.00;;
3643;SDS011;1838;50.742;7.158;2023-12-20T08:32:01;23.70;;;5.80;;
3643;SDS011;1838;50.742;7.158;2023-12-20T08:34:26;20.03;;;5.60;;
3643;SDS011;1838;50.742;7.158;2023-12-20T08:36:52;13.00;;;4.23;;
3643;SDS011;1838;50.742;7.158;2023-12-20T08:39:18;8.90;;;4.23;;
3643;SDS011;1838;50.742;7.158;2023-12-20T08:41:44;22.10;;;6.13;;
3643;SDS011;1838;50.742;7.158;2023-12-20T08:44:09;16.30;;;5.40;;
3643;SDS011;1838;50.742;7.158;2023-12-20T08:46:35;22.73;;;5.20;;
3643;SDS011;1838;50.742;7.158;2023-12-20T08:49:00;28.40;;;5.73;;
3643;SDS011;1838;50.742;7.158;2023-12-20T08:51:26;24.43;;;5.50;;
3643;SDS011;1838;50.742;7.158;2023-12-20T08:53:52;21.77;;;5.50;;
3643;SDS011;1838;50.742;7.158;2023-12-20T08:56:18;18.07;;;6.90;;
3643;SDS011;1838;50.742;7.158;2023-12-20T08:58:45;18.13;;;6.63;;
3643;SDS011;1838;50.742;7.158;2023-12-20T09:01:11;19.70;;;5.40;;
3643;SDS011;1838;50.742;7.158;2023-12-20T09:03:37;23.20;;;4.73;;
3643;SDS011;1838;50.742;7.158;2023-12-20T09:06:02;17.77;;;5.50;;
3643;SDS011;1838;50.742;7.158;2023-12-20T09:08:28;13.30;;;4.50;;
3643;SDS011;1838;50.742;7.158;2023-12-20T09:10:54;24.83;;;5.50;;
3643;SDS011;1838;50.742;7.158;2023-12-20T09:13:19;20.73;;;6.03;;
3643;SDS011;1838;50.742;7.158;2023-12-20T09:15:45;13.03;;;4.40;;
3643;SDS011;1838;50.742;7.158;2023-12-20T09:18:11;14.10;;;4.87;;
3643;SDS011;1838;50.742;7.158;2023-12-20T09:20:37;10.53;;;4.37;;
3643;SDS011;1838;50.742;7.158;2023-12-20T09:23:02;14.33;;;4.63;;
3643;SDS011;1838;50.742;7.158;2023-12-20T09:25:28;14.43;;;4.57;;
3643;SDS011;1838;50.742;7.158;2023-12-20T09:27:54;16.10;;;4.70;;
3643;SDS011;1838;50.742;7.158;2023-12-20T09:30:20;15.67;;;4.53;;
3643;SDS011;1838;50.742;7.158;2023-12-20T09:32:46;16.23;;;4.47;;
3643;SDS011;1838;50.742;7.158;2023-12-20T09:35:11;11.40;;;4.00;;
3643;SDS011;1838;50.742;7.158;2023-12-20T09:37:37;12.70;;;3.90;;
3643;SDS011;1838;50.742;7.158;2023-12-20T09:40:03;9.37;;;4.90;;
3643;SDS011;1838;50.742;7.158;2023-12-20T09:42:38;14.57;;;4.43;;
3643;SDS011;1838;50.742;7.158;2023-12-20T09:45:10;20.47;;;4.90;;
3643;SDS011;1838;50.742;7.158;2023-12-20T09:47:40;17.50;;;4.90;;
3643;SDS011;1838;50.742;7.158;2023-12-20T09:50:06;20.60;;;6.70;;
3643;SDS011;1838;50.742;7.158;2023-12-20T09:52:32;13.37;;;4.90;;
3643;SDS011;1838;50.742;7.158;2023-12-20T09:54:59;11.23;;;3.60;;
3643;SDS011;1838;50.742;7.158;2023-12-20T09:57:26;18.97;;;6.27;;
3643;SDS011;1838;50.742;7.158;2023-12-20T09:59:52;14.40;;;4.50;;
3643;SDS011;1838;50.742;7.158;2023-12-20T10:02:17;15.20;;;5.17;;
3643;SDS011;1838;50.742;7.158;2023-12-20T10:04:48;8.90;;;3.00;;
3643;SDS011;1838;50.742;7.158;2023-12-20T10:07:13;19.23;;;4.77;;
3643;SDS011;1838;50.742;7.158;2023-12-20T10:09:40;10.37;;;3.90;;
3643;SDS011;1838;50.742;7.158;2023-12-20T10:12:06;26.53;;;4.37;;
3643;SDS011;1838;50.742;7.158;2023-12-20T10:14:32;19.43;;;4.23;;
3643;SDS011;1838;50.742;7.158;2023-12-20T10:17:04;17.07;;;3.70;;
3643;SDS011;1838;50.742;7.158;2023-12-20T10:19:30;11.30;;;4.10;;
3643;SDS011;1838;50.742;7.158;2023-12-20T10:22:00;12.17;;;3.50;;
3643;SDS011;1838;50.742;7.158;2023-12-20T10:24:28;6.63;;;3.00;;
3643;SDS011;1838;50.742;7.158;2023-12-20T10:27:01;17.00;;;4.03;;
3643;SDS011;1838;50.742;7.158;2023-12-20T10:29:31;12.80;;;3.50;;
3643;SDS011;1838;50.742;7.158;2023-12-20T10:32:21;25.80;;;5.47;;
3643;SDS011;1838;50.742;7.158;2023-12-20T10:34:46;11.23;;;3.73;;
3643;SDS011;1838;50.742;7.158;2023-12-20T10:37:12;14.90;;;4.37;;
3643;SDS011;1838;50.742;7.158;2023-12-20T10:39:37;13.93;;;3.80;;
3643;SDS011;1838;50.742;7.158;2023-12-20T10:42:05;13.40;;;4.63;;
3643;SDS011;1838;50.742;7.158;2023-12-20T10:44:31;17.33;;;3.93;;
3643;SDS011;1838;50.742;7.158;2023-12-20T10:46:56;14.10;;;4.67;;
3643;SDS011;1838;50.742;7.158;2023-12-20T10:49:23;17.63;;;5.33;;
3643;SDS011;1838;50.742;7.158;2023-12-20T10:51:51;22.83;;;4.73;;
3643;SDS011;1838;50.742;7.158;2023-12-20T10:54:19;15.10;;;4.20;;
3643;SDS011;1838;50.742;7.158;2023-12-20T10:56:45;21.20;;;4.50;;
3643;SDS011;1838;50.742;7.158;2023-12-20T10:59:11;16.70;;;4.73;;
3643;SDS011;1838;50.742;7.158;2023-12-20T11:01:40;11.27;;;4.30;;
3643;SDS011;1838;50.742;7.158;2023-12-20T11:04:08;11.47;;;4.20;;
3643;SDS011;1838;50.742;7.158;2023-12-20T11:06:36;22.10;;;4.30;;
3643;SDS011;1838;50.742;7.158;2023-12-20T11:09:20;14.67;;;3.60;;
3643;SDS011;1838;50.742;7.158;2023-12-20T11:12:06;14.63;;;4.50;;
3643;SDS011;1838;50.742;7.158;2023-12-20T11:17:15;12.80;;;4.53;;
3643;SDS011;1838;50.742;7.158;2023-12-20T11:22:26;18.87;;;4.90;;
3643;SDS011;1838;50.742;7.158;2023-12-20T11:24:57;7.53;;;3.90;;
3643;SDS011;1838;50.742;7.158;2023-12-20T11:27:27;8.23;;;3.90;;
3643;SDS011;1838;50.742;7.158;2023-12-20T11:29:53;11.37;;;3.90;;
3643;SDS011;1838;50.742;7.158;2023-12-20T11:34:53;16.40;;;4.60;;
3643;SDS011;1838;50.742;7.158;2023-12-20T11:37:20;20.80;;;5.00;;
3643;SDS011;1838;50.742;7.158;2023-12-20T11:39:54;14.80;;;5.40;;
3643;SDS011;1838;50.742;7.158;2023-12-20T11:42:21;14.37;;;5.90;;
3643;SDS011;1838;50.742;7.158;2023-12-20T11:44:47;10.33;;;4.97;;
3643;SDS011;1838;50.742;7.158;2023-12-20T11:47:12;15.33;;;5.40;;
3643;SDS011;1838;50.742;7.158;2023-12-20T11:49:39;13.83;;;4.40;;
3643;SDS011;1838;50.742;7.158;2023-12-20T11:52:05;11.87;;;5.10;;
3643;SDS011;1838;50.742;7.158;2023-12-20T11:54:30;11.50;;;4.73;;
3643;SDS011;1838;50.742;7.158;2023-12-20T11:56:56;12.57;;;4.53;;
3643;SDS011;1838;50.742;7.158;2023-12-20T11:59:22;10.00;;;4.13;;
3643;SDS011;1838;50.742;7.158;2023-12-20T12:01:48;12.90;;;4.60;;
3643;SDS011;1838;50.742;7.158;2023-12-20T12:04:15;13.73;;;3.90;;
3643;SDS011;1838;50.742;7.158;2023-12-20T12:06:42;11.43;;;3.80;;
3643;SDS011;1838;50.742;7.158;2023-12-20T12:09:08;13.37;;;5.10;;
3643;SDS011;1838;50.742;7.158;2023-12-20T12:11:33;9.00;;;4.73;;
3643;SDS011;1838;50.742;7.158;2023-12-20T12:13:59;13.73;;;5.00;;
3643;SDS011;1838;50.742;7.158;2023-12-20T12:16:25;16.33;;;4.63;;
3643;SDS011;1838;50.742;7.158;2023-12-20T12:18:55;18.13;;;5.50;;
3643;SDS011;1838;50.742;7.158;2023-12-20T12:21:21;9.23;;;3.60;;
3643;SDS011;1838;50.742;7.158;2023-12-20T12:23:47;10.90;;;3.90;;
3643;SDS011;1838;50.742;7.158;2023-12-20T12:26:13;18.30;;;4.50;;
3643;SDS011;1838;50.742;7.158;2023-12-20T12:28:42;10.43;;;4.50;;
3643;SDS011;1838;50.742;7.158;2023-12-20T12:31:08;8.67;;;4.10;;
3643;SDS011;1838;50.742;7.158;2023-12-20T12:33:38;13.80;;;5.40;;
3643;SDS011;1838;50.742;7.158;2023-12-20T12:36:03;9.17;;;4.07;;
3643;SDS011;1838;50.742;7.158;2023-12-20T12:38:32;12.43;;;4.57;;
3643;SDS011;1838;50.742;7.158;2023-12-20T12:40:57;7.17;;;3.70;;
3643;SDS011;1838;50.742;7.158;2023-12-20T12:43:23;8.67;;;3.57;;
3643;SDS011;1838;50.742;7.158;2023-12-20T12:45:49;23.33;;;5.20;;
3643;SDS011;1838;50.742;7.158;2023-12-20T12:48:15;21.03;;;5.17;;
3643;SDS011;1838;50.742;7.158;2023-12-20T12:50:40;18.93;;;4.30;;
3643;SDS011;1838;50.742;7.158;2023-12-20T12:53:06;7.43;;;3.50;;
3643;SDS011;1838;50.742;7.158;2023-12-20T12:55:31;9.63;;;3.63;;
3643;SDS011;1838;50.742;7.158;2023-12-20T12:57:57;11.30;;;4.53;;
3643;SDS011;1838;50.742;7.158;2023-12-20T13:00:23;16.97;;;4.43;;
3643;SDS011;1838;50.742;7.158;2023-12-20T13:02:49;9.20;;;4.30;;
3643;SDS011;1838;50.742;7.158;2023-12-20T13:05:15;11.60;;;4.27;;
3643;SDS011;1838;50.742;7.158;2023-12-20T13:07:40;15.10;;;4.73;;
3643;SDS011;1838;50.742;7.158;2023-12-20T13:10:10;21.97;;;4.80;;
3643;SDS011;1838;50.742;7.158;2023-12-20T13:12:35;14.67;;;4.50;;
3643;SDS011;1838;50.742;7.158;2023-12-20T13:15:01;16.07;;;5.43;;
3643;SDS011;1838;50.742;7.158;2023-12-20T13:17:28;14.80;;;4.57;;
3643;SDS011;1838;50.742;7.158;2023-12-20T13:19:54;18.23;;;5.07;;
3643;SDS011;1838;50.742;7.158;2023-12-20T13:22:20;13.57;;;4.60;;
3643;SDS011;1838;50.742;7.158;2023-12-20T13:24:45;19.57;;;4.80;;
3643;SDS011;1838;50.742;7.158;2023-12-20T13:27:11;10.33;;;4.77;;
3643;SDS011;1838;50.742;7.158;2023-12-20T13:29:36;11.03;;;4.60;;
3643;SDS011;1838;50.742;7.158;2023-12-20T13:32:02;20.67;;;6.50;;
3643;SDS011;1838;50.742;7.158;2023-12-20T13:34:28;11.97;;;4.73;;
3643;SDS011;1838;50.742;7.158;2023-12-20T13:36:54;18.60;;;4.97;;
3643;SDS011;1838;50.742;7.158;2023-12-20T13:39:20;9.47;;;5.20;;
3643;SDS011;1838;50.742;7.158;2023-12-20T13:41:46;10.57;;;4.70;;
3643;SDS011;1838;50.742;7.158;2023-12-20T13:44:12;17.93;;;5.20;;
3643;SDS011;1838;50.742;7.158;2023-12-20T13:46:38;6.73;;;4.90;;
3643;SDS011;1838;50.742;7.158;2023-12-20T13:49:04;10.00;;;4.80;;
3643;SDS011;1838;50.742;7.158;2023-12-20T13:51:30;8.07;;;5.07;;
3643;SDS011;1838;50.742;7.158;2023-12-20T13:53:56;11.07;;;5.53;;
3643;SDS011;1838;50.742;7.158;2023-12-20T13:56:22;13.73;;;5.10;;
3643;SDS011;1838;50.742;7.158;2023-12-20T13:58:48;11.23;;;4.67;;
3643;SDS011;1838;50.742;7.158;2023-12-20T14:01:15;11.30;;;4.87;;
3643;SDS011;1838;50.742;7.158;2023-12-20T14:03:40;14.07;;;5.53;;
3643;SDS011;1838;50.742;7.158;2023-12-20T14:06:06;16.60;;;5.70;;
3643;SDS011;1838;50.742;7.158;2023-12-20T14:08:31;14.90;;;4.77;;
3643;SDS011;1838;50.742;7.158;2023-12-20T14:10:57;10.93;;;5.67;;
3643;SDS011;1838;50.742;7.158;2023-12-20T14:13:23;10.97;;;4.67;;
3643;SDS011;1838;50.742;7.158;2023-12-20T14:15:48;8.30;;;4.63;;
3643;SDS011;1838;50.742;7.158;2023-12-20T14:18:14;12.80;;;4.17;;
3643;SDS011;1838;50.742;7.158;2023-12-20T14:20:40;7.30;;;4.50;;
3643;SDS011;1838;50.742;7.158;2023-12-20T14:23:07;12.20;;;4.47;;
3643;SDS011;1838;50.742;7.158;2023-12-20T14:25:37;7.50;;;3.20;;
3643;SDS011;1838;50.742;7.158;2023-12-20T14:28:03;9.23;;;5.00;;
3643;SDS011;1838;50.742;7.158;2023-12-20T14:30:29;8.13;;;3.40;;
3643;SDS011;1838;50.742;7.158;2023-12-20T14:32:55;7.83;;;2.53;;
3643;SDS011;1838;50.742;7.158;2023-12-20T14:35:20;8.15;;;2.22;;
3643;SDS011;1838;50.742;7.158;2023-12-20T14:37:46;5.37;;;2.80;;
3643;SDS011;1838;50.742;7.158;2023-12-20T14:40:11;7.23;;;2.47;;
3643;SDS011;1838;50.742;7.158;2023-12-20T14:42:43;4.97;;;2.80;;
3643;SDS011;1838;50.742;7.158;2023-12-20T14:45:09;4.50;;;2.60;;
3643;SDS011;1838;50.742;7.158;2023-12-20T14:47:35;5.20;;;2.07;;
3643;SDS011;1838;50.742;7.158;2023-12-20T14:50:04;3.33;;;2.10;;
3643;SDS011;1838;50.742;7.158;2023-12-20T14:52:31;4.90;;;1.97;;
3643;SDS011;1838;50.742;7.158;2023-12-20T14:54:59;3.70;;;1.57;;
3643;SDS011;1838;50.742;7.158;2023-12-20T14:57:24;4.00;;;1.97;;
3643;SDS011;1838;50.742;7.158;2023-12-20T14:59:51;7.43;;;1.70;;
3643;SDS011;1838;50.742;7.158;2023-12-20T15:02:16;4.20;;;1.93;;
3643;SDS011;1838;50.742;7.158;2023-12-20T15:04:42;5.43;;;2.03;;
3643;SDS011;1838;50.742;7.158;2023-12-20T15:07:08;8.67;;;2.23;;